Time;durP1;ratioP1;P1;durP2;ratioP2;P2;SDS_P1;SDS_P2;PMS_P1;PMS_P2;Temp;Humidity;BMP_temperature;BMP_pressure;BME280_temperature;BME280_humidity;BME280_pressure;Samples;Min_cycle;Max_cycle;Signal;HPM_P1;HPM_P2
2024/02/10 00:02:06;;;;;;;3.22;2.05;;;7.50;99.90;;;;;;4952381;28;20200;-80
2024/02/10 00:04:33;;;;;;;2.00;1.80;;;7.60;99.90;;;;;;4957905;28;20381;-80
2024/02/10 00:07:01;;;;;;;2.25;2.15;;;7.50;99.90;;;;;;4929694;29;20208;-81
2024/02/10 00:09:28;;;;;;;0.40;0.40;;;7.60;99.90;;;;;;4964346;28;20203;-81
2024/02/10 00:11:58;;;;;;;3.80;3.50;;;7.40;99.90;;;;;;4952174;28;20266;-80
2024/02/10 00:14:26;;;;;;;1.42;1.42;;;7.40;99.90;;;;;;4953240;29;20247;-80
2024/02/10 00:16:53;;;;;;;1.45;1.35;;;7.40;99.90;;;;;;4953426;28;20256;-80
2024/02/10 00:19:21;;;;;;;2.47;2.33;;;7.30;99.90;;;;;;4962000;29;20217;-79
2024/02/10 00:21:48;;;;;;;1.55;1.55;;;7.30;99.90;;;;;;4962859;28;20227;-80
2024/02/10 00:24:20;;;;;;;2.17;2.08;;;7.30;99.90;;;;;;4963455;28;20218;-80
2024/02/10 00:26:47;;;;;;;0.95;0.95;;;7.40;99.90;;;;;;4930932;29;20235;-80
2024/02/10 00:29:14;;;;;;;1.73;1.63;;;7.40;99.90;;;;;;4963739;28;20207;-82
2024/02/10 00:31:43;;;;;;;2.38;2.28;;;7.30;99.90;;;;;;4975753;28;20211;-80
2024/02/10 00:34:13;;;;;;;2.65;2.55;;;7.40;99.90;;;;;;4933858;29;20265;-79
2024/02/10 00:36:40;;;;;;;3.05;2.80;;;7.50;99.90;;;;;;4946453;28;20218;-80
2024/02/10 00:39:07;;;;;;;1.38;1.35;;;7.40;99.90;;;;;;4954341;29;20203;-79
2024/02/10 00:41:35;;;;;;;2.03;1.80;;;7.40;99.90;;;;;;4953993;29;20238;-82
2024/02/10 00:44:01;;;;;;;1.88;1.77;;;7.20;99.90;;;;;;4953842;28;20278;-81
2024/02/10 00:46:31;;;;;;;1.95;1.85;;;7.40;99.90;;;;;;4964409;28;20212;-79
2024/02/10 00:49:00;;;;;;;0.40;0.40;;;7.40;99.90;;;;;;4928489;29;20253;-79
2024/02/10 00:51:30;;;;;;;3.83;3.08;;;7.40;99.90;;;;;;4947069;28;20208;-79
2024/02/10 00:53:57;;;;;;;1.67;1.67;;;7.50;99.90;;;;;;4964683;28;20266;-81
2024/02/10 00:56:24;;;;;;;3.08;2.88;;;7.60;99.90;;;;;;4945612;29;20207;-78
2024/02/10 00:58:51;;;;;;;2.05;1.95;;;7.60;99.90;;;;;;4949615;28;20207;-79
2024/02/10 01:01:21;;;;;;;0.50;0.50;;;7.50;99.90;;;;;;4949984;28;20274;-81
2024/02/10 01:03:49;;;;;;;1.10;1.10;;;7.60;99.90;;;;;;4949072;28;20216;-81
2024/02/10 01:06:20;;;;;;;2.00;1.90;;;7.40;99.90;;;;;;4957476;28;20303;-80
2024/02/10 01:08:48;;;;;;;1.85;1.75;;;7.40;99.90;;;;;;4943783;28;20211;-79
2024/02/10 01:11:20;;;;;;;2.35;2.00;;;7.50;99.90;;;;;;4935169;29;20243;-79
2024/02/10 01:13:49;;;;;;;2.30;2.20;;;7.40;99.90;;;;;;4950160;28;20257;-79
2024/02/10 01:16:18;;;;;;;2.42;2.28;;;7.40;99.90;;;;;;4942263;28;20207;-80
2024/02/10 01:18:50;;;;;;;8.23;3.72;;;7.50;99.90;;;;;;4942492;28;20212;-79
2024/02/10 01:21:19;;;;;;;3.47;3.28;;;7.40;99.90;;;;;;4943569;29;20199;-80
2024/02/10 01:23:49;;;;;;;2.95;2.75;;;7.40;99.90;;;;;;4935987;28;20271;-79
2024/02/10 01:26:17;;;;;;;3.03;2.33;;;7.40;99.90;;;;;;4956066;28;20208;-78
2024/02/10 01:28:45;;;;;;;3.75;3.50;;;7.50;99.90;;;;;;4947743;28;20353;-80
2024/02/10 01:31:13;;;;;;;6.60;3.28;;;7.50;99.90;;;;;;4941691;29;20203;-78
2024/02/10 01:33:41;;;;;;;2.35;2.25;;;7.50;99.90;;;;;;4963103;28;20270;-78
2024/02/10 01:36:11;;;;;;;4.45;4.15;;;7.50;99.90;;;;;;4942602;28;20512;-79
2024/02/10 01:38:44;;;;;;;1.15;1.15;;;7.40;99.90;;;;;;4942771;28;20607;-80
2024/02/10 01:41:13;;;;;;;3.60;1.27;;;7.50;99.90;;;;;;4952748;28;20212;-81
2024/02/10 01:43:42;;;;;;;2.40;2.25;;;7.50;99.90;;;;;;4951353;28;20239;-77
2024/02/10 01:46:21;;;;;;;2.25;1.17;;;7.50;99.90;;;;;;4948939;28;20231;-80
2024/02/10 01:48:49;;;;;;;2.38;1.90;;;7.40;99.90;;;;;;4954732;29;20620;-78
2024/02/10 01:51:20;;;;;;;3.28;3.05;;;7.50;99.90;;;;;;4957273;28;20249;-81
2024/02/10 01:53:48;;;;;;;0.88;0.88;;;7.60;99.90;;;;;;4953431;28;20299;-80
2024/02/10 01:56:17;;;;;;;1.85;1.75;;;7.50;99.90;;;;;;4954822;28;20249;-78
2024/02/10 01:58:46;;;;;;;18.60;4.63;;;7.50;99.90;;;;;;4958929;28;20203;-80
2024/02/10 02:01:15;;;;;;;0.95;0.95;;;7.60;99.90;;;;;;4957263;29;20207;-80
2024/02/10 02:03:43;;;;;;;0.98;0.98;;;7.50;99.90;;;;;;4968149;29;20258;-80
2024/02/10 02:06:17;;;;;;;2.47;2.38;;;7.40;99.90;;;;;;4959211;29;20237;-80
2024/02/10 02:08:49;;;;;;;2.63;2.53;;;7.50;99.90;;;;;;4975695;28;20399;-80
2024/02/10 02:11:17;;;;;;;1.70;1.58;;;7.30;99.90;;;;;;4964084;29;20203;-80
2024/02/10 02:13:44;;;;;;;18.30;3.10;;;7.50;99.90;;;;;;4952451;28;20239;-81
2024/02/10 02:16:11;;;;;;;2.05;1.95;;;7.50;99.90;;;;;;4953288;28;20210;-81
2024/02/10 02:18:43;;;;;;;3.15;2.85;;;7.40;99.90;;;;;;4964097;28;20472;-80
2024/02/10 02:21:11;;;;;;;5.47;3.20;;;7.40;99.90;;;;;;4948004;28;20783;-80
2024/02/10 02:23:39;;;;;;;4.60;4.40;;;7.50;99.90;;;;;;4952823;28;20207;-80
2024/02/10 02:26:06;;;;;;;6.10;3.20;;;7.50;99.90;;;;;;4942356;28;20420;-79
2024/02/10 02:28:33;;;;;;;3.60;3.40;;;7.60;99.90;;;;;;4949128;29;20242;-81
2024/02/10 02:31:03;;;;;;;2.65;1.20;;;7.50;99.90;;;;;;4940345;29;20212;-80
2024/02/10 02:33:36;;;;;;;2.35;2.25;;;7.50;99.90;;;;;;4950237;28;20267;-80
2024/02/10 02:36:03;;;;;;;3.72;3.53;;;7.50;99.90;;;;;;4962230;28;20225;-79
2024/02/10 02:38:30;;;;;;;0.82;0.82;;;7.50;99.90;;;;;;4959911;28;20236;-80
2024/02/10 02:40:57;;;;;;;4.15;3.95;;;7.50;99.90;;;;;;4972216;28;20246;-79
2024/02/10 02:43:24;;;;;;;2.20;2.05;;;7.50;99.90;;;;;;4951255;29;20282;-77
2024/02/10 02:45:51;;;;;;;4.90;2.25;;;7.40;99.90;;;;;;4947390;29;20215;-77
2024/02/10 02:48:18;;;;;;;4.57;4.20;;;7.40;99.90;;;;;;4952644;28;20227;-79
2024/02/10 02:50:46;;;;;;;4.72;4.43;;;7.30;99.90;;;;;;4956915;28;20445;-78
2024/02/10 02:53:15;;;;;;;5.82;5.43;;;7.40;99.90;;;;;;4937641;28;20211;-79
2024/02/10 02:55:45;;;;;;;4.18;3.92;;;7.40;99.90;;;;;;4929881;29;20464;-78
2024/02/10 02:58:13;;;;;;;4.45;4.15;;;7.40;99.90;;;;;;4960192;28;20207;-78
2024/02/10 03:00:41;;;;;;;1.15;1.15;;;7.40;99.90;;;;;;4966261;28;20264;-79
2024/02/10 03:03:08;;;;;;;0.95;0.95;;;7.40;99.90;;;;;;4964056;28;20230;-80
2024/02/10 03:05:36;;;;;;;2.25;1.17;;;7.40;99.90;;;;;;4958724;28;20258;-80
2024/02/10 03:08:05;;;;;;;11.48;3.22;;;7.40;99.90;;;;;;4953059;28;20239;-77
2024/02/10 03:10:33;;;;;;;3.50;3.20;;;7.40;99.90;;;;;;4945446;28;20274;-78
2024/02/10 03:13:00;;;;;;;2.78;2.67;;;7.40;99.90;;;;;;4953507;28;20267;-76
2024/02/10 03:15:27;;;;;;;1.05;1.05;;;7.40;99.90;;;;;;4940087;29;20476;-77
2024/02/10 03:17:55;;;;;;;3.78;3.47;;;7.40;99.90;;;;;;4953801;28;20550;-77
2024/02/10 03:20:28;;;;;;;6.80;3.83;;;7.40;99.90;;;;;;4953672;29;20220;-77
2024/02/10 03:23:01;;;;;;;2.47;2.35;;;7.30;99.90;;;;;;4958670;28;20211;-78
2024/02/10 03:25:30;;;;;;;1.17;1.17;;;7.30;99.90;;;;;;4955457;28;20221;-77
2024/02/10 03:27:57;;;;;;;1.55;1.45;;;7.30;99.90;;;;;;4948513;28;20219;-78
2024/02/10 03:30:24;;;;;;;1.27;1.27;;;7.50;99.90;;;;;;4961713;28;20207;-78
2024/02/10 03:32:54;;;;;;;1.30;1.23;;;7.30;99.90;;;;;;4953648;29;20283;-79
2024/02/10 03:35:24;;;;;;;2.88;2.67;;;7.30;99.90;;;;;;4943289;29;20283;-76
2024/02/10 03:37:51;;;;;;;2.50;2.33;;;7.30;99.90;;;;;;4956386;28;20210;-79
2024/02/10 03:40:20;;;;;;;1.90;1.83;;;7.50;99.90;;;;;;4947099;28;20201;-78
2024/02/10 03:42:47;;;;;;;1.90;1.80;;;7.30;99.90;;;;;;4950013;29;20520;-77
2024/02/10 03:45:14;;;;;;;1.48;1.40;;;7.30;99.90;;;;;;4950147;29;20212;-80
2024/02/10 03:47:45;;;;;;;4.03;3.83;;;7.30;99.90;;;;;;4960666;28;20310;-77
2024/02/10 03:50:14;;;;;;;2.75;2.58;;;7.30;99.90;;;;;;4959977;28;20290;-77
2024/02/10 03:52:42;;;;;;;3.53;3.30;;;7.30;99.90;;;;;;4942808;28;20236;-79
2024/02/10 03:55:10;;;;;;;8.82;2.45;;;7.50;99.90;;;;;;4959776;28;20229;-80
2024/02/10 03:57:37;;;;;;;3.58;3.35;;;7.30;99.90;;;;;;4963605;28;20263;-79
2024/02/10 04:00:20;;;;;;;4.75;3.38;;;7.30;99.90;;;;;;4952952;28;20211;-78
2024/02/10 04:02:47;;;;;;;4.05;3.72;;;7.40;99.90;;;;;;4959616;29;20234;-77
2024/02/10 04:05:14;;;;;;;3.42;3.08;;;7.30;99.90;;;;;;4955207;28;20252;-79
2024/02/10 04:07:49;;;;;;;1.75;1.65;;;7.40;99.90;;;;;;4957445;28;20249;-76
2024/02/10 04:10:17;;;;;;;1.80;1.70;;;7.30;99.90;;;;;;4959508;28;20321;-76
2024/02/10 04:12:46;;;;;;;1.95;1.90;;;7.30;99.90;;;;;;4945403;29;20408;-77
2024/02/10 04:15:13;;;;;;;3.60;3.30;;;7.30;99.90;;;;;;4952012;28;20326;-78
2024/02/10 04:17:55;;;;;;;2.65;2.55;;;7.30;99.90;;;;;;4950194;28;20206;-76
2024/02/10 04:20:25;;;;;;;2.67;2.47;;;7.30;99.90;;;;;;4947782;28;20216;-75
2024/02/10 04:22:55;;;;;;;2.00;1.92;;;7.30;99.90;;;;;;4947213;28;20239;-77
2024/02/10 04:25:23;;;;;;;5.97;2.53;;;7.30;99.90;;;;;;4937384;29;20408;-78
2024/02/10 04:27:50;;;;;;;3.35;2.25;;;7.20;99.90;;;;;;4954978;28;20218;-77
2024/02/10 04:30:19;;;;;;;13.15;6.78;;;7.30;99.90;;;;;;4942473;28;20283;-78
2024/02/10 04:32:46;;;;;;;2.22;2.13;;;7.30;99.90;;;;;;4954842;28;20241;-77
2024/02/10 04:35:14;;;;;;;1.05;1.05;;;7.20;99.90;;;;;;4937251;28;20228;-78
2024/02/10 04:37:51;;;;;;;5.40;5.10;;;7.30;99.90;;;;;;4955631;28;20657;-78
2024/02/10 04:40:23;;;;;;;3.75;3.40;;;7.20;99.90;;;;;;4957673;28;20258;-79
2024/02/10 04:42:53;;;;;;;1.35;1.27;;;7.30;99.90;;;;;;4955169;28;20404;-78
2024/02/10 04:45:32;;;;;;;3.65;2.47;;;7.20;99.90;;;;;;4937535;29;20226;-78
2024/02/10 04:48:01;;;;;;;7.03;5.15;;;7.20;99.90;;;;;;4932398;29;20469;-76
2024/02/10 04:50:28;;;;;;;3.53;3.35;;;7.20;99.90;;;;;;4941470;28;20258;-76
2024/02/10 04:52:56;;;;;;;1.23;1.17;;;7.20;99.90;;;;;;4947674;28;20212;-78
2024/02/10 04:55:27;;;;;;;3.58;3.20;;;7.20;99.90;;;;;;4941433;28;20232;-78
2024/02/10 04:57:55;;;;;;;2.10;2.00;;;7.30;99.90;;;;;;4956804;28;20503;-78
2024/02/10 05:00:23;;;;;;;2.67;1.63;;;7.20;99.90;;;;;;4932810;29;20212;-77
2024/02/10 05:02:51;;;;;;;2.30;2.15;;;7.20;99.90;;;;;;4956046;28;20556;-79
2024/02/10 05:05:20;;;;;;;3.33;3.22;;;7.10;99.90;;;;;;4952362;28;20211;-78
2024/02/10 05:07:55;;;;;;;2.90;2.70;;;7.10;99.90;;;;;;4960519;28;20555;-78
2024/02/10 05:10:23;;;;;;;2.67;2.50;;;7.10;99.90;;;;;;4958459;28;20206;-78
2024/02/10 05:12:51;;;;;;;6.97;2.92;;;7.10;99.90;;;;;;4949413;28;20223;-79
2024/02/10 05:15:21;;;;;;;4.53;4.22;;;7.10;99.90;;;;;;4943934;28;20231;-79
2024/02/10 05:17:49;;;;;;;4.95;4.65;;;7.10;99.90;;;;;;4931471;29;20262;-78
2024/02/10 05:20:18;;;;;;;2.95;2.67;;;7.00;99.90;;;;;;4951778;28;20265;-79
2024/02/10 05:22:49;;;;;;;1.05;1.05;;;7.10;99.90;;;;;;4963041;28;20251;-79
2024/02/10 05:25:19;;;;;;;1.27;1.27;;;7.00;99.90;;;;;;4953258;28;20229;-80
2024/02/10 05:27:49;;;;;;;3.75;3.53;;;7.00;99.90;;;;;;4962157;28;20526;-78
2024/02/10 05:30:20;;;;;;;3.17;2.88;;;7.00;99.90;;;;;;4954421;28;20526;-77
2024/02/10 05:32:49;;;;;;;14.65;4.70;;;7.00;99.90;;;;;;4943909;28;20282;-77
2024/02/10 05:35:22;;;;;;;2.40;2.30;;;6.90;99.90;;;;;;5078952;27;1497270;-78
2024/02/10 05:37:55;;;;;;;4.47;3.38;;;6.90;99.90;;;;;;5080720;28;20424;-78
2024/02/10 05:40:31;;;;;;;1.05;1.05;;;7.00;99.90;;;;;;5075843;28;20210;-78
2024/02/10 05:42:58;;;;;;;3.22;3.03;;;6.80;99.90;;;;;;5100549;28;20201;-78
2024/02/10 05:45:28;;;;;;;2.83;2.63;;;6.80;99.90;;;;;;5094867;28;20485;-78
2024/02/10 05:47:55;;;;;;;1.40;1.40;;;6.80;99.90;;;;;;5094728;28;20259;-78
2024/02/10 05:50:23;;;;;;;4.20;3.20;;;6.70;99.90;;;;;;5098116;28;20206;-78
2024/02/10 05:52:57;;;;;;;1.70;1.50;;;6.70;99.90;;;;;;5102692;28;20229;-77
2024/02/10 05:55:27;;;;;;;2.05;1.95;;;6.60;99.90;;;;;;5084453;28;20201;-79
2024/02/10 05:57:58;;;;;;;4.55;2.78;;;6.50;99.90;;;;;;5088215;28;20207;-77
2024/02/10 06:00:26;;;;;;;4.72;4.38;;;6.50;99.90;;;;;;5092425;28;20203;-79
2024/02/10 06:02:56;;;;;;;1.13;1.13;;;6.70;99.90;;;;;;5094648;28;20210;-79
2024/02/10 06:05:23;;;;;;;3.47;3.22;;;6.50;99.90;;;;;;5090838;28;20214;-79
2024/02/10 06:07:56;;;;;;;2.95;2.67;;;6.60;99.90;;;;;;5078068;28;20195;-80
2024/02/10 06:10:24;;;;;;;1.50;1.40;;;6.40;99.90;;;;;;5084766;28;20211;-79
2024/02/10 06:12:52;;;;;;;4.55;4.25;;;6.50;99.90;;;;;;5091034;28;20251;-78
2024/02/10 06:15:22;;;;;;;3.00;2.88;;;6.50;99.90;;;;;;5072630;28;20235;-78
2024/02/10 06:17:55;;;;;;;2.53;2.42;;;6.50;99.90;;;;;;5092326;28;20203;-78
2024/02/10 06:20:22;;;;;;;2.42;2.33;;;6.20;99.90;;;;;;5094745;28;20213;-78
2024/02/10 06:22:52;;;;;;;2.53;2.40;;;6.40;99.90;;;;;;5095610;28;20364;-79
2024/02/10 06:25:27;;;;;;;2.47;2.38;;;6.40;99.90;;;;;;5114752;28;20202;-78
2024/02/10 06:27:57;;;;;;;2.92;2.83;;;6.50;99.90;;;;;;5100447;28;20190;-80
2024/02/10 06:30:33;;;;;;;1.13;1.13;;;6.50;99.90;;;;;;5109677;28;20253;-78
2024/02/10 06:33:03;;;;;;;1.45;1.45;;;6.30;99.90;;;;;;5092599;28;20202;-79
2024/02/10 06:35:30;;;;;;;1.75;1.67;;;6.30;99.90;;;;;;5093624;28;20226;-78
2024/02/10 06:37:58;;;;;;;1.48;1.48;;;6.30;99.90;;;;;;5091975;28;20521;-79
2024/02/10 06:40:26;;;;;;;3.03;2.92;;;6.40;99.90;;;;;;5094722;28;20479;-80
2024/02/10 06:42:53;;;;;;;3.30;3.10;;;6.40;99.90;;;;;;5093975;28;20643;-79
2024/02/10 06:45:28;;;;;;;4.70;4.38;;;6.30;99.90;;;;;;5090681;28;20218;-77
2024/02/10 06:47:56;;;;;;;3.13;2.95;;;6.30;99.90;;;;;;5086081;28;20261;-79
2024/02/10 06:50:26;;;;;;;6.75;6.10;;;6.30;99.90;;;;;;5092768;28;20206;-80
2024/02/10 06:52:54;;;;;;;2.45;2.35;;;6.30;99.90;;;;;;5089077;28;20224;-78
2024/02/10 06:55:26;;;;;;;2.45;2.35;;;6.30;99.90;;;;;;5077864;28;20239;-80
2024/02/10 06:57:57;;;;;;;4.85;4.53;;;6.40;99.90;;;;;;5087539;28;20196;-79
2024/02/10 07:00:24;;;;;;;2.30;2.20;;;6.40;99.90;;;;;;5071892;28;20804;-79
2024/02/10 07:02:51;;;;;;;6.18;5.72;;;6.30;99.90;;;;;;5076623;28;20203;-78
2024/02/10 07:05:19;;;;;;;3.92;3.63;;;6.30;99.90;;;;;;5064039;28;20283;-80
2024/02/10 07:07:48;;;;;;;9.10;7.00;;;6.30;99.90;;;;;;5091704;28;20203;-80
2024/02/10 07:10:20;;;;;;;1.33;1.33;;;6.30;99.90;;;;;;5080347;28;20665;-80
2024/02/10 07:12:49;;;;;;;4.50;4.20;;;6.20;99.90;;;;;;5073575;28;20207;-78
2024/02/10 07:15:18;;;;;;;9.15;4.85;;;6.20;99.90;;;;;;5082182;28;20297;-78
2024/02/10 07:17:49;;;;;;;3.28;3.08;;;6.20;99.90;;;;;;5058499;28;20229;-77
2024/02/10 07:20:25;;;;;;;3.97;3.78;;;6.00;99.90;;;;;;5075499;28;20229;-79
2024/02/10 07:22:57;;;;;;;5.97;5.47;;;6.20;99.90;;;;;;5076782;28;20202;-79
2024/02/10 07:25:26;;;;;;;2.65;2.55;;;6.10;99.90;;;;;;5077964;28;20249;-79
2024/02/10 07:28:00;;;;;;;6.43;5.88;;;6.20;99.90;;;;;;5078982;28;20214;-79
2024/02/10 07:30:31;;;;;;;6.70;6.07;;;6.30;99.90;;;;;;5073166;28;20201;-78
2024/02/10 07:33:08;;;;;;;2.95;2.85;;;6.50;99.90;;;;;;5076270;28;20506;-79
2024/02/10 07:35:43;;;;;;;4.90;4.60;;;6.40;99.90;;;;;;5084402;28;20253;-79
2024/02/10 07:38:10;;;;;;;7.80;4.00;;;6.50;99.90;;;;;;5086880;28;20372;-78
2024/02/10 07:40:38;;;;;;;5.10;3.72;;;6.50;99.90;;;;;;5083606;28;20403;-78
2024/02/10 07:43:09;;;;;;;4.88;4.60;;;6.50;99.90;;;;;;5097079;28;20262;-77
2024/02/10 07:45:36;;;;;;;9.80;5.38;;;6.70;99.90;;;;;;5079301;28;20276;-79
2024/02/10 07:48:06;;;;;;;4.25;3.92;;;6.80;99.90;;;;;;5098630;28;20203;-77
2024/02/10 07:50:40;;;;;;;6.60;3.90;;;6.90;99.90;;;;;;5085026;28;20209;-78
2024/02/10 07:53:12;;;;;;;2.53;2.35;;;6.90;99.90;;;;;;5063405;28;20495;-79
2024/02/10 07:55:42;;;;;;;5.80;5.40;;;7.10;99.90;;;;;;5079618;28;20242;-77
2024/02/10 07:58:12;;;;;;;2.38;2.28;;;7.10;99.90;;;;;;5077458;28;20274;-77
2024/02/10 08:00:40;;;;;;;5.07;4.68;;;7.20;99.90;;;;;;5070811;28;20230;-80
2024/02/10 08:03:07;;;;;;;3.13;2.92;;;7.30;99.90;;;;;;5066293;28;20210;-78
2024/02/10 08:05:34;;;;;;;3.60;3.35;;;7.40;99.90;;;;;;5072440;28;20220;-80
2024/02/10 08:08:02;;;;;;;5.40;5.10;;;7.50;99.90;;;;;;5078964;28;20195;-80
2024/02/10 08:10:32;;;;;;;4.65;4.45;;;7.50;99.90;;;;;;5079777;28;20200;-79
2024/02/10 08:12:59;;;;;;;7.15;4.65;;;7.60;99.90;;;;;;5075650;28;20209;-78
2024/02/10 08:15:30;;;;;;;2.13;2.03;;;7.80;99.90;;;;;;5062883;28;20227;-77
2024/02/10 08:18:00;;;;;;;4.55;4.25;;;8.00;99.90;;;;;;5074312;28;20488;-79
2024/02/10 08:20:28;;;;;;;3.13;3.03;;;9.00;99.90;;;;;;5074739;28;20207;-78
2024/02/10 08:22:55;;;;;;;2.35;2.25;;;9.50;99.90;;;;;;5078130;28;20463;-80
2024/02/10 08:25:27;;;;;;;1.90;1.80;;;9.10;99.90;;;;;;5069431;28;20214;-80
2024/02/10 08:27:59;;;;;;;2.83;2.63;;;9.00;99.90;;;;;;5069073;28;20203;-80
2024/02/10 08:30:27;;;;;;;1.60;1.50;;;8.80;99.90;;;;;;5079414;28;20202;-79
2024/02/10 08:32:56;;;;;;;2.75;2.65;;;9.00;99.90;;;;;;5056754;28;20208;-80
2024/02/10 08:35:27;;;;;;;2.55;2.45;;;9.10;99.90;;;;;;5080589;28;20577;-81
2024/02/10 08:37:54;;;;;;;3.45;3.30;;;9.10;99.90;;;;;;5077609;28;20198;-79
2024/02/10 08:40:21;;;;;;;9.00;8.35;;;9.10;99.90;;;;;;5053643;28;20710;-81
2024/02/10 08:42:53;;;;;;;3.03;2.92;;;9.00;99.90;;;;;;5087835;28;20199;-81
2024/02/10 08:45:20;;;;;;;3.33;3.13;;;9.10;99.90;;;;;;5060772;28;20192;-79
2024/02/10 08:47:47;;;;;;;3.80;3.38;;;9.10;99.90;;;;;;5061324;28;20199;-80
2024/02/10 08:50:14;;;;;;;3.10;3.00;;;8.90;99.90;;;;;;5074967;28;20214;-78
2024/02/10 08:52:47;;;;;;;4.32;4.00;;;9.20;99.90;;;;;;5087975;28;20679;-79
2024/02/10 08:55:15;;;;;;;1.83;1.75;;;9.50;99.90;;;;;;5067802;28;20590;-80
2024/02/10 08:57:43;;;;;;;4.75;4.30;;;9.60;99.90;;;;;;5078335;28;20199;-80
2024/02/10 09:00:11;;;;;;;2.45;2.35;;;9.40;99.90;;;;;;5084329;28;20212;-79
2024/02/10 09:02:38;;;;;;;4.47;4.13;;;9.50;99.90;;;;;;5084056;28;20203;-79
2024/02/10 09:05:07;;;;;;;5.65;4.32;;;9.50;99.90;;;;;;5079245;28;20440;-80
2024/02/10 09:07:34;;;;;;;3.85;3.47;;;9.60;99.90;;;;;;5079301;28;20203;-81
2024/02/10 09:10:01;;;;;;;1.98;1.88;;;9.70;99.90;;;;;;5080451;28;20196;-82
2024/02/10 09:12:30;;;;;;;6.00;5.50;;;9.70;99.90;;;;;;5078749;28;20194;-80
2024/02/10 09:14:57;;;;;;;1.30;1.27;;;9.70;99.90;;;;;;5070532;28;20392;-81
2024/02/10 09:17:24;;;;;;;1.33;1.33;;;9.80;99.90;;;;;;5054548;28;20218;-80
2024/02/10 09:19:51;;;;;;;2.25;2.05;;;10.00;99.90;;;;;;5047005;28;20310;-81
2024/02/10 09:22:18;;;;;;;0.95;0.95;;;10.10;99.90;;;;;;5082261;28;20204;-80
2024/02/10 09:24:44;;;;;;;1.90;1.80;;;10.20;99.90;;;;;;5068935;28;20207;-81
2024/02/10 09:27:11;;;;;;;1.20;1.15;;;10.30;99.90;;;;;;5075767;28;20234;-80
2024/02/10 09:29:39;;;;;;;1.15;1.15;;;10.40;99.90;;;;;;5067049;28;20216;-80
2024/02/10 09:32:06;;;;;;;2.60;2.50;;;10.60;99.90;;;;;;5077613;28;20214;-79
2024/02/10 09:34:34;;;;;;;2.72;2.63;;;10.40;99.90;;;;;;5077819;28;20260;-79
2024/02/10 09:37:01;;;;;;;2.08;1.98;;;10.30;99.90;;;;;;5077885;28;20198;-78
2024/02/10 09:39:28;;;;;;;2.75;2.65;;;10.30;99.90;;;;;;5083165;28;20207;-80
2024/02/10 09:42:00;;;;;;;1.00;1.00;;;10.40;99.90;;;;;;5091136;28;20206;-80
2024/02/10 09:44:33;;;;;;;0.82;0.82;;;10.30;99.90;;;;;;5080568;28;20218;-82
2024/02/10 09:47:01;;;;;;;3.38;2.50;;;10.50;99.90;;;;;;5086446;28;20202;-79
2024/02/10 09:49:29;;;;;;;0.98;0.98;;;10.50;99.90;;;;;;5083375;28;20511;-80
2024/02/10 09:52:00;;;;;;;1.60;1.50;;;10.40;99.90;;;;;;5078444;28;20407;-81
2024/02/10 09:54:28;;;;;;;1.27;1.27;;;10.70;99.90;;;;;;5080047;28;20231;-80
2024/02/10 09:57:02;;;;;;;8.07;2.90;;;10.80;99.90;;;;;;5070257;28;20432;-78
2024/02/10 09:59:29;;;;;;;1.15;1.15;;;10.80;99.90;;;;;;5052778;28;20196;-79
2024/02/10 10:01:59;;;;;;;1.77;1.67;;;11.10;99.90;;;;;;5081199;28;20263;-79
2024/02/10 10:04:27;;;;;;;1.70;1.60;;;11.50;99.90;;;;;;5067903;28;20211;-82
2024/02/10 10:06:56;;;;;;;1.70;1.60;;;11.90;99.90;;;;;;5082356;28;20213;-82
2024/02/10 10:09:23;;;;;;;1.13;1.13;;;11.70;99.90;;;;;;5075001;28;20242;-80
2024/02/10 10:11:50;;;;;;;1.08;1.08;;;11.50;99.90;;;;;;5069572;28;20213;-80
2024/02/10 10:14:19;;;;;;;0.70;0.70;;;11.30;99.90;;;;;;5073662;28;20228;-83
2024/02/10 10:16:57;;;;;;;1.13;1.13;;;11.40;99.90;;;;;;5076106;28;20208;-80
2024/02/10 10:19:27;;;;;;;1.27;1.27;;;11.20;99.90;;;;;;5087128;28;20238;-81
2024/02/10 10:21:56;;;;;;;0.95;0.95;;;10.90;99.90;;;;;;5092359;28;20199;-83
2024/02/10 10:24:25;;;;;;;1.08;1.08;;;11.00;99.90;;;;;;5091924;28;20200;-78
2024/02/10 10:26:56;;;;;;;1.08;1.08;;;11.20;99.90;;;;;;5077651;28;20206;-80
2024/02/10 10:29:23;;;;;;;6.82;4.35;;;11.20;99.90;;;;;;5091297;28;20211;-79
2024/02/10 10:31:53;;;;;;;1.83;1.73;;;11.30;99.90;;;;;;5077191;28;20218;-81
2024/02/10 10:34:22;;;;;;;1.08;1.08;;;11.40;99.90;;;;;;5089021;28;20453;-83
2024/02/10 10:36:53;;;;;;;1.67;1.65;;;11.40;99.90;;;;;;5080058;28;20200;-80
2024/02/10 10:39:22;;;;;;;2.53;2.40;;;11.40;99.90;;;;;;5088402;28;20275;-80
2024/02/10 10:41:51;;;;;;;1.40;1.40;;;11.30;99.90;;;;;;5088934;28;20204;-79
2024/02/10 10:44:21;;;;;;;1.00;1.00;;;11.30;99.90;;;;;;5089298;28;20214;-81
2024/02/10 10:46:51;;;;;;;4.63;4.30;;;11.00;99.90;;;;;;5081621;28;20520;-78
2024/02/10 10:49:19;;;;;;;1.75;1.65;;;11.20;99.90;;;;;;5090386;28;20230;-78
2024/02/10 10:51:59;;;;;;;0.40;0.40;;;11.30;99.90;;;;;;5084316;28;20212;-81
2024/02/10 10:54:31;;;;;;;2.10;2.00;;;11.40;99.90;;;;;;5069867;28;20451;-82
2024/02/10 10:57:13;;;;;;;1.05;0.95;;;11.40;99.90;;;;;;5075552;28;20235;-81
2024/02/10 10:59:44;;;;;;;3.17;2.97;;;11.40;99.90;;;;;;5094332;28;20365;-81
2024/02/10 11:02:12;;;;;;;1.42;1.35;;;11.40;99.90;;;;;;5065857;28;20223;-79
2024/02/10 11:05:02;;;;;;;2.20;2.00;;;11.40;99.90;;;;;;5061009;28;20266;-82
2024/02/10 11:07:33;;;;;;;0.95;0.95;;;11.40;99.90;;;;;;5075559;28;20210;-81
2024/02/10 11:10:00;;;;;;;0.70;0.70;;;11.50;99.90;;;;;;5086135;28;20211;-82
2024/02/10 11:12:31;;;;;;;0.70;0.70;;;11.40;99.90;;;;;;5078621;28;20565;-81
2024/02/10 11:14:59;;;;;;;0.50;0.50;;;11.40;99.90;;;;;;5060046;28;20299;-82
2024/02/10 11:17:29;;;;;;;0.82;0.82;;;11.40;99.90;;;;;;5072066;28;20231;-81
2024/02/10 11:20:04;;;;;;;0.40;0.40;;;11.30;99.90;;;;;;5085009;28;20200;-80
2024/02/10 11:22:38;;;;;;;1.52;1.52;;;11.30;99.90;;;;;;5083953;28;20195;-81
2024/02/10 11:25:11;;;;;;;0.60;0.60;;;11.60;99.90;;;;;;5084555;28;20511;-79
2024/02/10 11:27:47;;;;;;;1.45;1.45;;;11.50;99.90;;;;;;5077572;28;20285;-81
2024/02/10 11:30:15;;;;;;;0.95;0.95;;;11.50;99.90;;;;;;5075307;28;20537;-81
2024/02/10 11:32:42;;;;;;;1.77;1.67;;;11.60;99.90;;;;;;5081457;28;20233;-82
2024/02/10 11:35:12;;;;;;;1.38;1.38;;;11.50;99.90;;;;;;5075164;28;20236;-84
2024/02/10 11:37:40;;;;;;;0.60;0.60;;;11.60;99.90;;;;;;5084132;28;20207;-82
2024/02/10 11:40:19;;;;;;;1.67;0.98;;;11.80;99.90;;;;;;5089315;28;20200;-82
2024/02/10 11:42:46;;;;;;;0.93;0.93;;;11.90;99.90;;;;;;5075793;28;20205;-82
2024/02/10 11:45:17;;;;;;;1.25;1.25;;;12.00;99.90;;;;;;5084227;28;20239;-83
2024/02/10 11:47:54;;;;;;;0.85;0.85;;;12.00;99.90;;;;;;5078867;28;20211;-80
2024/02/10 11:50:21;;;;;;;1.20;1.10;;;12.10;99.90;;;;;;5056646;28;20559;-82
2024/02/10 11:52:48;;;;;;;1.52;1.52;;;12.10;99.90;;;;;;5084711;28;20523;-80
2024/02/10 11:55:18;;;;;;;3.53;3.30;;;12.30;99.90;;;;;;5069296;28;20224;-81
2024/02/10 11:57:48;;;;;;;2.17;2.08;;;12.40;99.90;;;;;;5054362;28;20369;-82
2024/02/10 12:00:18;;;;;;;0.50;0.50;;;12.40;99.90;;;;;;5077637;28;20296;-80
2024/02/10 12:02:47;;;;;;;3.00;2.83;;;12.40;99.90;;;;;;5062822;28;20360;-79
2024/02/10 12:05:14;;;;;;;0.85;0.85;;;12.50;99.90;;;;;;5078259;28;20276;-78
2024/02/10 12:07:43;;;;;;;0.40;0.40;;;12.50;99.90;;;;;;5076470;28;20444;-81
2024/02/10 12:10:11;;;;;;;1.75;1.65;;;12.50;99.90;;;;;;5086743;28;20413;-80
2024/02/10 12:12:38;;;;;;;1.30;1.30;;;12.60;99.90;;;;;;5058405;28;20202;-82
2024/02/10 12:15:12;;;;;;;0.70;0.70;;;12.60;99.90;;;;;;5076062;28;20236;-80
2024/02/10 12:17:47;;;;;;;0.70;0.70;;;12.50;99.90;;;;;;5074004;28;20258;-82
2024/02/10 12:20:18;;;;;;;0.50;0.50;;;12.50;99.90;;;;;;5073794;28;20217;-80
2024/02/10 12:23:04;;;;;;;0.50;0.50;;;12.60;99.90;;;;;;5055786;28;20297;-83
2024/02/10 12:25:33;;;;;;;2.15;2.05;;;12.60;99.90;;;;;;5071140;28;20283;-81
2024/02/10 12:28:00;;;;;;;1.33;1.30;;;12.60;99.90;;;;;;5055921;28;20662;-83
2024/02/10 12:30:27;;;;;;;1.20;1.13;;;12.70;99.90;;;;;;5085362;28;20281;-80
2024/02/10 12:32:54;;;;;;;0.50;0.50;;;12.70;99.90;;;;;;5069127;28;20485;-82
2024/02/10 12:35:21;;;;;;;1.37;1.33;;;12.70;99.90;;;;;;5082691;28;20271;-79
2024/02/10 12:37:49;;;;;;;0.90;0.90;;;12.70;99.90;;;;;;5085395;28;20406;-80
2024/02/10 12:40:21;;;;;;;0.60;0.60;;;12.80;99.90;;;;;;5073954;28;20209;-82
2024/02/10 12:42:50;;;;;;;0.60;0.60;;;12.90;99.90;;;;;;5070381;28;20209;-79
2024/02/10 12:45:19;;;;;;;1.13;1.13;;;12.80;99.90;;;;;;5075790;28;20520;-81
2024/02/10 12:47:46;;;;;;;3.35;3.08;;;12.80;99.90;;;;;;5070027;28;20219;-81
2024/02/10 12:50:13;;;;;;;1.90;1.80;;;12.80;99.90;;;;;;5060702;28;20283;-80
2024/02/10 12:52:45;;;;;;;1.45;1.35;;;12.80;99.90;;;;;;5062956;28;20433;-81
2024/02/10 12:55:14;;;;;;;0.88;0.88;;;12.90;99.90;;;;;;5064791;28;20242;-85
2024/02/10 12:57:43;;;;;;;2.67;2.53;;;12.90;99.90;;;;;;5069118;28;20264;-81
2024/02/10 13:00:22;;;;;;;0.60;0.60;;;13.00;99.90;;;;;;5060254;28;20532;-83
2024/02/10 13:02:51;;;;;;;0.60;0.60;;;12.90;99.90;;;;;;5077492;28;20207;-83
2024/02/10 13:05:20;;;;;;;3.37;3.13;;;13.00;99.90;;;;;;5074175;28;20453;-84